createdAt,value
2022-07-29T14:56:38.417Z,1009.41
2022-07-29T14:56:54.430Z,1009.41
2022-07-29T14:57:27.580Z,1009.41
2022-07-29T14:58:07.766Z,1009.31
2022-07-29T14:58:30.301Z,1009.31
2022-07-29T14:59:02.741Z,1009.11
2022-07-29T14:59:36.105Z,1009.21
2022-07-29T15:00:06.807Z,1009.21
2022-07-29T15:00:34.762Z,1009.41
2022-07-29T15:00:55.304Z,1009.41
2022-07-29T15:01:26.582Z,1009.41
2022-07-29T15:01:59.279Z,1009.21
2022-07-29T15:02:52.208Z,1009.21
2022-07-29T15:03:23.906Z,1009.31
2022-07-29T15:03:50.343Z,1009.41
2022-07-29T15:04:22.795Z,1009.41
2022-07-29T15:04:40.428Z,1009.31
2022-07-29T15:05:10.380Z,1009.31
2022-07-29T15:05:34.758Z,1009.11
2022-07-29T15:05:59.341Z,1009.11
2022-07-29T15:06:30.374Z,1009.11
2022-07-29T15:07:03.208Z,1009.31
2022-07-29T15:07:34.860Z,1009.11
2022-07-29T15:08:07.417Z,1009.11
2022-07-29T15:08:34.759Z,1009.21
2022-07-29T15:08:54.387Z,1009.21
2022-07-29T15:09:26.401Z,1009.21
2022-07-29T15:09:49.497Z,1009.31
2022-07-29T15:10:14.711Z,1009.31
2022-07-29T15:10:34.770Z,1009.41
2022-07-29T15:11:02.304Z,1009.41
2022-07-29T15:11:38.531Z,1009.11
2022-07-29T15:12:07.070Z,1009.11
2022-07-29T15:12:34.805Z,1009.11
2022-07-29T15:12:55.277Z,1009.11
2022-07-29T15:13:26.399Z,1009.11
2022-07-29T15:13:45.679Z,1009.41
2022-07-29T15:14:14.317Z,1009.41
2022-07-29T15:14:35.362Z,1009.41
2022-07-29T15:15:03.505Z,1009.41
2022-07-29T15:15:35.215Z,1009.11
2022-07-29T15:16:06.406Z,1009.11
2022-07-29T15:16:34.834Z,1009.04
2022-07-29T15:16:54.382Z,1009.04
2022-07-29T15:17:26.651Z,1009.04
2022-07-29T15:17:43.194Z,1009.31
2022-07-29T15:18:14.434Z,1009.31
2022-07-29T15:18:34.766Z,1009.11
2022-07-29T15:19:02.652Z,1009.11
2022-07-29T15:19:34.330Z,1009.21
2022-07-29T15:20:06.609Z,1009.21
2022-07-29T15:20:34.787Z,1009.31
2022-07-29T15:20:54.428Z,1009.31
2022-07-29T15:21:26.420Z,1009.31
2022-07-29T15:21:59.294Z,1009.21
2022-07-29T15:22:14.985Z,1009.21
2022-07-29T15:22:35.672Z,1009.11
2022-07-29T15:23:02.640Z,1009.11
2022-07-29T15:23:34.432Z,1009.51
2022-07-29T15:24:07.227Z,1009.51
2022-07-29T15:24:34.754Z,1009.31
2022-07-29T15:24:54.366Z,1009.31
2022-07-29T15:25:28.047Z,1009.31
2022-07-29T15:25:43.162Z,1009.21
2022-07-29T15:26:14.265Z,1009.21
2022-07-29T15:26:34.795Z,1009.11
2022-07-29T15:27:03.702Z,1009.11
2022-07-29T15:27:34.326Z,1009.21
2022-07-29T15:28:06.286Z,1009.21
2022-07-29T15:28:34.995Z,1009.41
2022-07-29T15:28:54.307Z,1009.41
2022-07-29T15:29:26.521Z,1009.41
2022-07-29T15:29:43.115Z,1009.31
2022-07-29T15:30:27.818Z,1009.31
2022-07-29T15:30:46.357Z,1009.31
2022-07-29T15:31:18.337Z,1009.31
2022-07-29T15:31:50.370Z,1009.31
2022-07-29T15:32:23.993Z,1009.31
2022-07-29T15:32:40.966Z,1009.31
2022-07-29T15:33:10.329Z,1009.31
2022-07-29T15:33:37.626Z,1009.41
2022-07-29T15:34:01.266Z,1009.41
2022-07-29T15:34:30.251Z,1009.41
2022-07-29T15:35:02.528Z,1009.31
2022-07-29T15:35:39.918Z,1009.62
2022-07-29T15:36:06.339Z,1009.62
2022-07-29T15:36:52.446Z,1009.51
2022-07-29T15:37:10.335Z,1009.51
2022-07-29T15:37:48.598Z,1009.51
2022-07-29T15:37:59.274Z,1009.51
2022-07-29T15:38:30.288Z,1009.51
2022-07-29T15:39:02.554Z,1009.31
2022-07-29T15:39:34.299Z,1009.31
2022-07-29T15:40:07.756Z,1009.31
2022-07-29T15:40:35.555Z,1009.41
2022-07-29T15:40:54.554Z,1009.41
2022-07-29T15:41:26.389Z,1009.41
2022-07-29T15:41:43.838Z,1009.41
2022-07-29T15:42:14.268Z,1009.41
2022-07-29T15:42:34.804Z,1009.41
2022-07-29T15:43:02.667Z,1009.41
2022-07-29T15:43:34.261Z,1009.41
2022-07-29T15:44:06.285Z,1009.41
2022-07-29T15:44:34.786Z,1009.41
2022-07-29T15:44:54.560Z,1009.41
2022-07-29T15:45:26.579Z,1009.41
2022-07-29T15:45:43.191Z,1009.51
2022-07-29T15:46:15.614Z,1009.51
2022-07-29T15:46:35.503Z,1009.41
2022-07-29T15:47:02.973Z,1009.41
2022-07-29T15:47:34.305Z,1009.31
2022-07-29T15:48:07.395Z,1009.31
2022-07-29T15:48:34.751Z,1009.51
2022-07-29T15:48:54.353Z,1009.51
2022-07-29T15:49:26.573Z,1009.51
2022-07-29T15:49:58.323Z,1009.41
2022-07-29T15:50:30.324Z,1009.41
2022-07-29T15:51:05.288Z,1009.51
2022-07-29T15:51:35.297Z,1009.31
2022-07-29T15:52:06.295Z,1009.31
2022-07-29T15:52:35.918Z,1009.21
2022-07-29T15:52:54.302Z,1009.21
2022-07-29T15:53:26.619Z,1009.21
2022-07-29T15:53:58.250Z,1009.51
2022-07-29T15:54:30.385Z,1009.51
2022-07-29T15:55:03.497Z,1009.41
2022-07-29T15:55:34.907Z,1009.11
2022-07-29T15:56:06.367Z,1009.11
2022-07-29T15:56:34.881Z,1009.21
2022-07-29T15:56:55.148Z,1009.21
2022-07-29T15:57:27.472Z,1009.21
2022-07-29T15:58:00.643Z,1009.31
2022-07-29T15:58:30.284Z,1009.31
2022-07-29T15:59:03.546Z,1009.31
2022-07-29T15:59:35.201Z,1009.31
2022-07-29T16:00:06.801Z,1009.31
2022-07-29T16:00:35.864Z,1009.31
2022-07-29T16:00:55.379Z,1009.31
2022-07-29T16:01:27.309Z,1009.31
2022-07-29T16:01:59.704Z,1009.21
2022-07-29T16:02:30.275Z,1009.21
2022-07-29T16:03:02.458Z,1009.31
2022-07-29T16:03:34.875Z,1009.31
2022-07-29T16:04:06.333Z,1009.31
2022-07-29T16:04:34.846Z,1009.41
2022-07-29T16:04:54.292Z,1009.41
2022-07-29T16:05:27.276Z,1009.41
2022-07-29T16:05:58.303Z,1009.21
2022-07-29T16:06:30.248Z,1009.21
2022-07-29T16:07:03.285Z,1009.11
2022-07-29T16:07:34.261Z,1009.31
2022-07-29T16:08:06.277Z,1009.31
2022-07-29T16:08:35.779Z,1009.51
2022-07-29T16:08:54.208Z,1009.51
2022-07-29T16:09:27.408Z,1009.51
2022-07-29T16:09:58.309Z,1009.21
2022-07-29T16:10:30.281Z,1009.21
2022-07-29T16:11:02.393Z,1009.21
2022-07-29T16:11:34.291Z,1009.31
2022-07-29T16:12:13.679Z,1009.31
2022-07-29T16:12:35.789Z,1009.04
2022-07-29T16:12:54.238Z,1009.04
2022-07-29T16:13:26.365Z,1009.04
2022-07-29T16:13:43.034Z,1009.31
2022-07-29T16:14:14.329Z,1009.31
2022-07-29T16:14:34.883Z,1009.21
2022-07-29T16:15:07.571Z,1009.21
2022-07-29T16:15:34.520Z,1009.21
2022-07-29T16:16:08.340Z,1009.21
2022-07-29T16:16:34.912Z,1009.31
2022-07-29T16:16:54.300Z,1009.31
2022-07-29T16:17:27.711Z,1009.31
2022-07-29T16:17:59.201Z,1009.21
2022-07-29T16:18:30.658Z,1009.21
2022-07-29T16:19:02.403Z,1009.31
2022-07-29T16:19:34.395Z,1009.31
2022-07-29T16:20:06.595Z,1009.11
2022-07-29T16:20:34.853Z,1009.31
2022-07-29T16:20:54.259Z,1009.31
2022-07-29T16:21:27.252Z,1009.31
2022-07-29T16:21:59.921Z,1009.21
2022-07-29T16:22:30.259Z,1009.21
2022-07-29T16:23:02.416Z,1009.41
2022-07-29T16:23:34.220Z,1009.41
2022-07-29T16:24:06.275Z,1009.31
2022-07-29T16:24:35.600Z,1009.21
2022-07-29T16:24:54.235Z,1009.21
2022-07-29T16:25:43.875Z,1009.21
2022-07-29T16:26:14.206Z,1009.11
2022-07-29T16:26:34.926Z,1009.31
2022-07-29T16:27:03.113Z,1009.31
2022-07-29T16:27:37.520Z,1009.31
2022-07-29T16:28:06.211Z,1009.31
2022-07-29T16:28:34.795Z,1009.21
2022-07-29T16:28:54.350Z,1009.21
2022-07-29T16:29:26.485Z,1009.21
2022-07-29T16:29:43.361Z,1009.41
2022-07-29T16:30:14.375Z,1009.41
2022-07-29T16:30:34.811Z,1009.21
2022-07-29T16:31:03.855Z,1009.21
2022-07-29T16:31:34.660Z,1009.21
2022-07-29T16:32:06.434Z,1009.41
2022-07-29T16:32:34.774Z,1009.31
2022-07-29T16:32:54.260Z,1009.31
2022-07-29T16:33:26.798Z,1009.31
2022-07-29T16:33:55.742Z,1009.21
2022-07-29T16:34:15.228Z,1009.21
2022-07-29T16:34:34.871Z,1009.11
2022-07-29T16:35:02.344Z,1009.11
2022-07-29T16:35:39.633Z,1009.11
2022-07-29T16:36:06.211Z,1009.11
2022-07-29T16:36:35.006Z,1009.31
2022-07-29T16:36:54.209Z,1009.31
2022-07-29T16:37:28.771Z,1009.31
2022-07-29T16:37:59.163Z,1009.21
2022-07-29T16:38:30.278Z,1009.21
2022-07-29T16:39:02.455Z,1009.21
2022-07-29T16:39:34.318Z,1009.21
2022-07-29T16:40:06.636Z,1009.21
2022-07-29T16:40:35.019Z,1009.31
2022-07-29T16:40:54.190Z,1009.31
2022-07-29T16:41:26.378Z,1009.31
2022-07-29T16:41:43.129Z,1009.41
2022-07-29T16:42:31.038Z,1009.41
2022-07-29T16:42:47.357Z,1009.31
2022-07-29T16:43:18.166Z,1009.31
2022-07-29T16:43:50.336Z,1009.31
2022-07-29T16:44:22.407Z,1009.31
2022-07-29T16:44:39.587Z,1009.31
2022-07-29T16:45:10.432Z,1009.31
2022-07-29T16:45:37.833Z,1009.41
2022-07-29T16:46:00.317Z,1009.41
2022-07-29T16:46:30.232Z,1009.41
2022-07-29T16:47:02.335Z,1009.41
2022-07-29T16:47:36.501Z,1009.41
2022-07-29T16:48:06.359Z,1009.51
2022-07-29T16:48:34.756Z,1009.41
2022-07-29T16:48:54.328Z,1009.41
2022-07-29T16:49:26.455Z,1009.41
2022-07-29T16:49:42.773Z,1009.41
2022-07-29T16:50:14.190Z,1009.41
2022-07-29T16:50:34.745Z,1009.51
2022-07-29T16:51:02.379Z,1009.51
2022-07-29T16:51:34.575Z,1009.51
2022-07-29T16:52:06.203Z,1009.41
2022-07-29T16:52:34.793Z,1009.62
2022-07-29T16:52:55.038Z,1009.62
2022-07-29T16:53:30.082Z,1009.62
2022-07-29T16:53:58.146Z,1009.51
2022-07-29T16:54:30.132Z,1009.51
2022-07-29T16:55:02.281Z,1009.62
2022-07-29T16:55:34.171Z,1009.62
2022-07-29T16:56:06.122Z,1009.41
2022-07-29T16:56:35.808Z,1009.72
2022-07-29T16:56:54.208Z,1009.72
2022-07-29T16:57:26.292Z,1009.72
2022-07-29T16:57:42.923Z,1009.62
2022-07-29T16:58:14.251Z,1009.62
2022-07-29T16:58:34.802Z,1009.82
2022-07-29T16:59:04.822Z,1009.82
2022-07-29T16:59:34.167Z,1009.82
2022-07-29T17:00:06.625Z,1009.82
2022-07-29T17:00:35.804Z,1009.82
2022-07-29T17:00:54.328Z,1009.82
2022-07-29T17:01:26.404Z,1009.82
2022-07-29T17:01:42.968Z,1009.62
2022-07-29T17:02:14.315Z,1009.62
2022-07-29T17:02:37.761Z,1009.62
2022-07-29T17:03:04.017Z,1009.62
2022-07-29T17:03:35.214Z,1009.62
2022-07-29T17:04:06.102Z,1009.51
2022-07-29T17:04:34.888Z,1009.51
2022-07-29T17:04:54.345Z,1009.51
2022-07-29T17:05:26.325Z,1009.51
2022-07-29T17:05:50.522Z,1009.82
2022-07-29T17:06:14.232Z,1009.82
2022-07-29T17:06:34.806Z,1009.72
2022-07-29T17:07:02.226Z,1009.72
2022-07-29T17:07:34.245Z,1009.72
2022-07-29T17:08:06.926Z,1009.72
2022-07-29T17:08:34.738Z,1009.72
2022-07-29T17:08:54.138Z,1009.72
2022-07-29T17:09:26.256Z,1009.72
2022-07-29T17:09:43.049Z,1009.82
2022-07-29T17:10:14.096Z,1009.82
2022-07-29T17:10:36.479Z,1009.62
2022-07-29T17:11:02.306Z,1009.62
2022-07-29T17:11:53.304Z,1009.62
2022-07-29T17:12:06.076Z,1010.02
2022-07-29T17:12:34.621Z,1009.72
2022-07-29T17:12:54.140Z,1009.72
2022-07-29T17:13:27.251Z,1009.72
2022-07-29T17:13:58.089Z,1009.72
2022-07-29T17:14:30.973Z,1009.72
2022-07-29T17:15:02.150Z,1009.92
2022-07-29T17:15:36.480Z,1009.92
2022-07-29T17:16:06.135Z,1010.12
2022-07-29T17:16:34.746Z,1009.82
2022-07-29T17:17:00.065Z,1009.82
2022-07-29T17:17:38.716Z,1009.82
2022-07-29T17:17:55.508Z,1009.82
2022-07-29T17:18:14.774Z,1009.82
2022-07-29T17:18:34.615Z,1009.72
2022-07-29T17:19:03.126Z,1009.72
2022-07-29T17:19:34.170Z,1009.72
2022-07-29T17:20:06.226Z,1009.92
2022-07-29T17:20:35.727Z,1009.92
2022-07-29T17:20:54.771Z,1009.92
2022-07-29T17:21:26.236Z,1009.92
2022-07-29T17:21:46.700Z,1009.92
2022-07-29T17:22:19.110Z,1009.92
2022-07-29T17:22:35.039Z,1009.92
2022-07-29T17:23:02.173Z,1009.92
2022-07-29T17:23:34.075Z,1009.92
2022-07-29T17:24:06.224Z,1009.82
2022-07-29T17:24:34.638Z,1009.82
2022-07-29T17:24:54.073Z,1009.82
2022-07-29T17:25:26.178Z,1009.82
2022-07-29T17:25:42.891Z,1010.02
2022-07-29T17:26:14.144Z,1010.02
2022-07-29T17:26:34.648Z,1009.92
2022-07-29T17:27:02.415Z,1009.92
2022-07-29T17:27:34.133Z,1009.92
2022-07-29T17:28:06.137Z,1009.92
2022-07-29T17:28:35.619Z,1009.92
2022-07-29T17:28:54.165Z,1009.92
2022-07-29T17:29:27.205Z,1009.92
2022-07-29T17:29:58.691Z,1009.92
2022-07-29T17:30:30.083Z,1009.92
2022-07-29T17:31:02.085Z,1009.92
2022-07-29T17:31:34.201Z,1009.92
2022-07-29T17:32:07.805Z,1010.02
2022-07-29T17:32:34.634Z,1010.02
2022-07-29T17:32:54.123Z,1010.02
2022-07-29T17:33:26.859Z,1010.02
2022-07-29T17:34:00.020Z,1009.72
2022-07-29T17:34:30.093Z,1009.72
2022-07-29T17:35:02.085Z,1010.12
2022-07-29T17:35:34.101Z,1010.12
2022-07-29T17:36:06.004Z,1010.02
2022-07-29T17:36:34.630Z,1009.72
2022-07-29T17:36:54.114Z,1009.72
2022-07-29T17:37:26.101Z,1009.72
2022-07-29T17:37:42.548Z,1010.02
2022-07-29T17:38:15.814Z,1010.02
2022-07-29T17:38:36.146Z,1009.82
2022-07-29T17:39:02.143Z,1009.82
2022-07-29T17:39:35.033Z,1009.82
2022-07-29T17:40:07.219Z,1010.02
2022-07-29T17:40:34.635Z,1010.02
2022-07-29T17:40:54.048Z,1010.02
2022-07-29T17:41:27.190Z,1010.02
2022-07-29T17:41:57.935Z,1009.82
2022-07-29T17:42:29.919Z,1009.82
2022-07-29T17:43:01.977Z,1009.92
2022-07-29T17:43:36.069Z,1009.92
2022-07-29T17:44:05.973Z,1009.92
2022-07-29T17:44:36.131Z,1010.02
2022-07-29T17:44:54.146Z,1010.02
2022-07-29T17:45:26.311Z,1010.02
2022-07-29T17:45:59.520Z,1009.92
2022-07-29T17:46:30.161Z,1009.92
2022-07-29T17:47:02.556Z,1009.92
2022-07-29T17:47:34.116Z,1009.92
2022-07-29T17:48:06.805Z,1010.12
2022-07-29T17:48:34.631Z,1010.02
2022-07-29T17:48:54.245Z,1010.02
2022-07-29T17:49:26.319Z,1010.02
2022-07-29T17:49:42.656Z,1009.92
2022-07-29T17:50:14.878Z,1009.92
2022-07-29T17:50:34.612Z,1009.92
2022-07-29T17:51:02.082Z,1009.92
2022-07-29T17:51:34.132Z,1009.92
2022-07-29T17:52:06.003Z,1010.02
2022-07-29T17:52:34.982Z,1009.72
2022-07-29T17:52:54.880Z,1009.72
2022-07-29T17:53:26.138Z,1009.72
2022-07-29T17:53:42.552Z,1009.82
2022-07-29T17:54:14.168Z,1009.82
2022-07-29T17:54:36.322Z,1009.72
2022-07-29T17:55:02.988Z,1009.72
2022-07-29T17:55:34.123Z,1009.72
2022-07-29T17:56:07.083Z,1009.72
2022-07-29T17:56:35.839Z,1009.82
2022-07-29T17:56:54.117Z,1009.82
2022-07-29T17:57:26.101Z,1009.82
2022-07-29T17:57:42.445Z,1010.12
2022-07-29T17:58:14.913Z,1010.12
2022-07-29T17:58:34.866Z,1010.02
2022-07-29T17:59:02.679Z,1010.02
2022-07-29T17:59:34.096Z,1010.02
2022-07-29T18:00:08.189Z,1009.92
2022-07-29T18:00:36.580Z,1009.92
2022-07-29T18:00:54.939Z,1009.92
2022-07-29T18:01:26.137Z,1009.92
2022-07-29T18:01:44.287Z,1010.02
2022-07-29T18:02:14.116Z,1010.02
2022-07-29T18:02:34.795Z,1010.02
2022-07-29T18:03:03.428Z,1010.02
2022-07-29T18:03:35.905Z,1010.02
2022-07-29T18:04:08.021Z,1010.02
2022-07-29T18:04:35.660Z,1010.02
2022-07-29T18:04:54.237Z,1010.02
2022-07-29T18:05:26.130Z,1010.02
2022-07-29T18:05:42.717Z,1010.33
2022-07-29T18:06:14.230Z,1010.33
2022-07-29T18:06:34.642Z,1010.33
2022-07-29T18:07:02.339Z,1010.33
2022-07-29T18:07:34.252Z,1010.33
2022-07-29T18:08:06.004Z,1010.02
2022-07-29T18:08:34.644Z,1010.53
2022-07-29T18:08:54.140Z,1010.53
2022-07-29T18:09:26.088Z,1010.53
2022-07-29T18:09:42.454Z,1010.43
2022-07-29T18:10:15.016Z,1010.43
2022-07-29T18:10:34.853Z,1010.12
2022-07-29T18:11:02.024Z,1010.12
2022-07-29T18:11:34.947Z,1010.12
2022-07-29T18:12:05.886Z,1010.33
2022-07-29T18:12:34.894Z,1010.43
2022-07-29T18:12:54.799Z,1010.43
2022-07-29T18:13:26.255Z,1010.43
2022-07-29T18:13:45.596Z,1010.33
2022-07-29T18:14:15.715Z,1010.33
2022-07-29T18:14:36.539Z,1010.63
2022-07-29T18:15:04.894Z,1010.63
2022-07-29T18:15:35.911Z,1010.63
2022-07-29T18:16:05.920Z,1010.53
2022-07-29T18:16:35.803Z,1010.43
2022-07-29T18:16:54.122Z,1010.43
2022-07-29T18:17:53.016Z,1010.43
2022-07-29T18:18:14.113Z,1010.43
2022-07-29T18:18:36.517Z,1010.53
2022-07-29T18:19:02.964Z,1010.53
2022-07-29T18:19:36.114Z,1010.53
2022-07-29T18:20:07.337Z,1010.33
2022-07-29T18:20:35.385Z,1010.53
2022-07-29T18:20:54.120Z,1010.53
2022-07-29T18:21:43.747Z,1010.53
2022-07-29T18:22:03.163Z,1010.63
2022-07-29T18:22:29.897Z,1010.63
2022-07-29T18:23:01.985Z,1010.43
2022-07-29T18:23:34.157Z,1010.43
2022-07-29T18:24:05.910Z,1010.33
2022-07-29T18:24:34.640Z,1010.53
2022-07-29T18:24:54.146Z,1010.53
2022-07-29T18:25:26.918Z,1010.53
2022-07-29T18:25:57.968Z,1010.43
2022-07-29T18:26:30.925Z,1010.43
2022-07-29T18:27:02.628Z,1010.53
2022-07-29T18:27:34.601Z,1010.53
2022-07-29T18:28:05.941Z,1010.43
2022-07-29T18:28:35.430Z,1010.43
2022-07-29T18:28:54.126Z,1010.43
2022-07-29T18:29:26.848Z,1010.43
2022-07-29T18:29:58.579Z,1010.43
2022-07-29T18:30:29.953Z,1010.43
2022-07-29T18:31:03.354Z,1010.63
2022-07-29T18:31:34.204Z,1010.63
2022-07-29T18:32:05.932Z,1010.63
2022-07-29T18:32:34.651Z,1010.73
2022-07-29T18:33:19.309Z,1010.73
2022-07-29T18:33:26.118Z,1010.73
2022-07-29T18:33:42.656Z,1010.63
2022-07-29T18:34:14.207Z,1010.63
2022-07-29T18:34:34.742Z,1010.63
2022-07-29T18:35:02.051Z,1010.63
2022-07-29T18:35:34.113Z,1010.63
2022-07-29T18:36:11.253Z,1010.63
2022-07-29T18:36:34.773Z,1010.94
2022-07-29T18:36:54.076Z,1010.94
2022-07-29T18:38:01.470Z,1010.94
2022-07-29T18:38:14.837Z,1010.73
2022-07-29T18:38:34.842Z,1010.73
2022-07-29T18:39:01.968Z,1010.73
2022-07-29T18:39:35.688Z,1010.73
2022-07-29T18:40:06.121Z,1010.84
2022-07-29T18:40:35.613Z,1010.63
2022-07-29T18:40:54.173Z,1010.63
2022-07-29T18:41:27.809Z,1010.63
2022-07-29T18:41:57.876Z,1010.53
2022-07-29T18:42:29.956Z,1010.53
2022-07-29T18:43:02.087Z,1010.94
2022-07-29T18:43:34.125Z,1010.94
2022-07-29T18:44:05.888Z,1010.73
2022-07-29T18:44:34.747Z,1010.84
2022-07-29T18:44:54.173Z,1010.84
2022-07-29T18:45:28.625Z,1010.84
2022-07-29T18:45:59.020Z,1010.73
2022-07-29T18:46:29.948Z,1010.73
2022-07-29T18:47:07.618Z,1010.84
2022-07-29T18:47:34.200Z,1010.84
2022-07-29T18:48:06.046Z,1010.84
2022-07-29T18:48:35.651Z,1010.73
2022-07-29T18:48:54.221Z,1010.73
2022-07-29T18:49:25.924Z,1010.73
2022-07-29T18:49:58.881Z,1010.84
2022-07-29T18:50:30.038Z,1010.84
2022-07-29T18:51:01.758Z,1010.84
2022-07-29T18:51:34.018Z,1010.84
2022-07-29T18:52:05.740Z,1010.73
2022-07-29T18:52:35.270Z,1010.73
2022-07-29T18:52:53.985Z,1010.73
2022-07-29T18:53:25.755Z,1010.73
2022-07-29T18:53:43.442Z,1011.04
2022-07-29T18:54:13.890Z,1011.04
2022-07-29T18:54:36.126Z,1010.73
2022-07-29T18:55:02.323Z,1010.73
2022-07-29T18:55:33.950Z,1010.73
2022-07-29T18:56:05.921Z,1010.94
2022-07-29T18:56:35.373Z,1011.04
2022-07-29T18:56:53.942Z,1011.04
2022-07-29T18:57:55.109Z,1011.04
2022-07-29T18:58:13.988Z,1010.84
2022-07-29T18:58:34.516Z,1010.94
2022-07-29T18:59:01.767Z,1010.94
2022-07-29T18:59:35.854Z,1010.94
2022-07-29T19:00:06.854Z,1010.84
2022-07-29T19:00:34.542Z,1011.14
2022-07-29T19:00:54.502Z,1011.14
2022-07-29T19:01:25.811Z,1011.14
2022-07-29T19:01:42.683Z,1011.04
2022-07-29T19:02:15.177Z,1011.04
2022-07-29T19:02:35.749Z,1011.04
2022-07-29T19:03:01.886Z,1011.04
2022-07-29T19:03:37.527Z,1011.04
2022-07-29T19:04:05.658Z,1011.24
2022-07-29T19:04:35.485Z,1011.04
2022-07-29T19:04:54.564Z,1011.04
2022-07-29T19:05:25.822Z,1011.04
2022-07-29T19:05:57.869Z,1011.04
2022-07-29T19:06:29.736Z,1011.04
2022-07-29T19:07:01.933Z,1010.84
2022-07-29T19:07:33.935Z,1010.84
2022-07-29T19:08:05.675Z,1011.24
2022-07-29T19:08:36.104Z,1011.04
2022-07-29T19:08:53.946Z,1011.04
2022-07-29T19:09:25.738Z,1011.04
2022-07-29T19:09:57.860Z,1011.04
2022-07-29T19:10:29.685Z,1011.04
2022-07-29T19:11:01.710Z,1011.31
2022-07-29T19:11:35.114Z,1011.31
2022-07-29T19:12:05.891Z,1011.14
2022-07-29T19:12:35.502Z,1011.14
2022-07-29T19:12:54.109Z,1011.14
2022-07-29T19:13:25.835Z,1011.14
2022-07-29T19:13:42.247Z,1011.24
2022-07-29T19:14:13.955Z,1011.24
2022-07-29T19:14:34.593Z,1011.04
2022-07-29T19:15:01.912Z,1011.04
2022-07-29T19:15:34.001Z,1011.04
2022-07-29T19:16:05.956Z,1011.04
2022-07-29T19:16:35.524Z,1010.94
2022-07-29T19:16:53.955Z,1010.94
2022-07-29T19:17:25.797Z,1010.94
2022-07-29T19:17:42.660Z,1010.84
2022-07-29T19:18:14.923Z,1010.84
2022-07-29T19:18:34.531Z,1011.04
2022-07-29T19:19:01.852Z,1011.04
2022-07-29T19:19:34.017Z,1011.04
2022-07-29T19:20:06.276Z,1010.94
2022-07-29T19:20:34.555Z,1010.84
2022-07-29T19:20:53.964Z,1010.84
2022-07-29T19:21:25.830Z,1010.84
2022-07-29T19:21:42.413Z,1010.94
2022-07-29T19:22:13.951Z,1010.94
2022-07-29T19:22:34.532Z,1010.84
2022-07-29T19:23:01.718Z,1010.84
2022-07-29T19:24:02.402Z,1010.84
2022-07-29T19:24:21.882Z,1010.73
2022-07-29T19:24:39.075Z,1011.04
2022-07-29T19:25:10.765Z,1011.04
2022-07-29T19:25:35.790Z,1010.84
2022-07-29T19:25:57.717Z,1010.84
2022-07-29T19:26:31.773Z,1010.84
2022-07-29T19:27:01.987Z,1010.84
2022-07-29T19:27:34.591Z,1010.84
2022-07-29T19:28:05.657Z,1010.84
2022-07-29T19:28:34.469Z,1010.84
2022-07-29T19:28:54.182Z,1010.84
2022-07-29T19:29:25.699Z,1010.84
2022-07-29T19:29:43.047Z,1010.84
2022-07-29T19:30:14.645Z,1010.84
2022-07-29T19:30:35.107Z,1010.73
2022-07-29T19:31:01.780Z,1010.73
2022-07-29T19:31:33.922Z,1010.73
2022-07-29T19:32:06.499Z,1010.94
2022-07-29T19:32:36.630Z,1010.84
2022-07-29T19:33:10.722Z,1010.84
2022-07-29T19:33:34.779Z,1010.84
2022-07-29T19:33:57.704Z,1010.84
2022-07-29T19:34:29.674Z,1010.84
2022-07-29T19:35:01.683Z,1010.63
2022-07-29T19:35:34.323Z,1010.63
2022-07-29T19:36:05.927Z,1010.84
2022-07-29T19:36:36.774Z,1011.04
2022-07-29T19:37:09.708Z,1011.04
2022-07-29T19:37:34.484Z,1010.84
2022-07-29T19:37:58.402Z,1010.84
2022-07-29T19:38:29.605Z,1010.84
2022-07-29T19:39:01.830Z,1010.94
2022-07-29T19:39:36.033Z,1010.94
2022-07-29T19:40:05.809Z,1011.04
2022-07-29T19:40:35.271Z,1010.94
2022-07-29T19:40:53.913Z,1010.94
2022-07-29T19:41:25.679Z,1010.94
2022-07-29T19:41:42.532Z,1011.04
2022-07-29T19:42:13.986Z,1011.04
2022-07-29T19:42:34.494Z,1010.94
2022-07-29T19:43:01.623Z,1010.94
2022-07-29T19:43:51.208Z,1010.94
2022-07-29T19:44:05.600Z,1011.14
2022-07-29T19:44:34.490Z,1011.24
2022-07-29T19:44:53.943Z,1011.24
2022-07-29T19:45:25.724Z,1011.24
2022-07-29T19:45:43.300Z,1010.94
2022-07-29T19:46:13.971Z,1010.94
2022-07-29T19:46:34.688Z,1011.14
2022-07-29T19:47:02.165Z,1011.14
2022-07-29T19:47:33.925Z,1011.14
2022-07-29T19:48:05.630Z,1011.14
2022-07-29T19:48:35.503Z,1011.41
2022-07-29T19:48:54.082Z,1011.41
2022-07-29T19:49:25.688Z,1011.41
2022-07-29T19:49:42.500Z,1011.24
2022-07-29T19:50:13.932Z,1011.24
2022-07-29T19:50:34.550Z,1011.31
2022-07-29T19:51:01.616Z,1011.31
2022-07-29T19:51:33.922Z,1011.31
2022-07-29T19:52:05.628Z,1011.14
2022-07-29T19:52:34.468Z,1011.31
2022-07-29T19:52:53.900Z,1011.31
2022-07-29T19:53:25.656Z,1011.31
2022-07-29T19:53:42.569Z,1011.31
2022-07-29T19:54:13.948Z,1011.31
2022-07-29T19:54:36.441Z,1011.41
2022-07-29T19:55:07.089Z,1011.41
2022-07-29T19:55:33.900Z,1011.41
2022-07-29T19:56:06.233Z,1011.24
2022-07-29T19:56:34.483Z,1011.24
2022-07-29T19:56:54.467Z,1011.24
2022-07-29T19:57:25.625Z,1011.24
2022-07-29T19:57:42.450Z,1011.14
2022-07-29T19:58:14.006Z,1011.14
2022-07-29T19:58:34.514Z,1011.24
2022-07-29T19:59:01.817Z,1011.24
2022-07-29T19:59:33.846Z,1011.24
2022-07-29T20:00:05.927Z,1011.14
2022-07-29T20:00:35.198Z,1011.14
2022-07-29T20:00:53.865Z,1011.14
2022-07-29T20:01:25.720Z,1011.14
2022-07-29T20:01:58.583Z,1011.31
2022-07-29T20:02:29.616Z,1011.31
2022-07-29T20:03:01.654Z,1011.24
2022-07-29T20:03:34.050Z,1011.24
2022-07-29T20:04:05.574Z,1011.31
2022-07-29T20:04:34.518Z,1011.24
2022-07-29T20:04:53.904Z,1011.24
2022-07-29T20:05:28.098Z,1011.24
2022-07-29T20:05:57.636Z,1011.41
2022-07-29T20:06:29.644Z,1011.41
2022-07-29T20:07:02.182Z,1011.41
2022-07-29T20:07:34.037Z,1011.41
2022-07-29T20:08:05.556Z,1011.41
2022-07-29T20:08:34.502Z,1011.51
2022-07-29T20:08:58.436Z,1011.51
2022-07-29T20:09:25.621Z,1011.51
2022-07-29T20:09:42.475Z,1011.31
2022-07-29T20:10:13.815Z,1011.31
2022-07-29T20:10:36.645Z,1011.51
2022-07-29T20:11:02.446Z,1011.51
2022-07-29T20:11:33.870Z,1011.51
2022-07-29T20:12:05.544Z,1011.61
2022-07-29T20:12:34.913Z,1011.31
2022-07-29T20:12:55.098Z,1011.31
2022-07-29T20:13:25.614Z,1011.31
2022-07-29T20:13:43.131Z,1011.51
2022-07-29T20:14:13.859Z,1011.51
2022-07-29T20:14:35.747Z,1011.24
2022-07-29T20:15:01.688Z,1011.24
2022-07-29T20:15:34.289Z,1011.24
2022-07-29T20:16:05.740Z,1011.61
2022-07-29T20:16:34.505Z,1011.61
2022-07-29T20:16:57.863Z,1011.61
2022-07-29T20:17:27.711Z,1011.61
2022-07-29T20:17:57.619Z,1011.72
2022-07-29T20:18:29.563Z,1011.72
2022-07-29T20:19:01.696Z,1011.72
2022-07-29T20:19:33.869Z,1011.72
2022-07-29T20:20:05.853Z,1011.61
2022-07-29T20:20:35.688Z,1011.61
2022-07-29T20:20:54.005Z,1011.61
2022-07-29T20:21:26.501Z,1011.61
2022-07-29T20:21:57.646Z,1011.72
2022-07-29T20:22:29.539Z,1011.72
2022-07-29T20:23:04.083Z,1011.51
2022-07-29T20:23:33.824Z,1011.51
2022-07-29T20:24:06.387Z,1011.92
2022-07-29T20:24:34.517Z,1011.82
2022-07-29T20:24:53.827Z,1011.82
2022-07-29T20:25:25.606Z,1011.82
2022-07-29T20:25:58.718Z,1011.82
2022-07-29T20:26:30.169Z,1011.82
2022-07-29T20:27:02.197Z,1011.82
2022-07-29T20:27:34.487Z,1011.82
2022-07-29T20:28:05.578Z,1011.72
2022-07-29T20:28:34.544Z,1011.72
2022-07-29T20:28:53.774Z,1011.72
2022-07-29T20:29:25.549Z,1011.72
2022-07-29T20:29:57.581Z,1011.82
2022-07-29T20:30:29.612Z,1011.82
2022-07-29T20:31:01.647Z,1011.72
2022-07-29T20:31:37.182Z,1011.72
2022-07-29T20:32:05.566Z,1011.72
2022-07-29T20:32:34.468Z,1011.72
2022-07-29T20:32:53.839Z,1011.72
2022-07-29T20:33:25.595Z,1011.72
2022-07-29T20:33:57.594Z,1011.61
2022-07-29T20:34:29.569Z,1011.61
2022-07-29T20:35:02.557Z,1011.72
2022-07-29T20:35:33.984Z,1011.72
2022-07-29T20:36:05.566Z,1011.61
2022-07-29T20:36:35.269Z,1011.61
2022-07-29T20:36:53.957Z,1011.61
2022-07-29T20:37:25.545Z,1011.61
2022-07-29T20:37:57.568Z,1011.72